Rexburg, ID (83440)

2:11 AM MST on January 17, 2017 (GMT -0700)
Fort Peacock | | Change Station

Elev 4915 ft 43.80 °N, 111.80 °W | Updated 6 seconds ago

Mostly Cloudy
Mostly Cloudy
-6.1 °F
Feels Like -6 °F
N
0.0
Wind Variable Wind from East

Today
High -- | Low -- °F
--% Chance of Precip.
Yesterday
High -- | Low -- °F
Precip. -- in
Pressure 30.57 in
Visibility 10.0 miles
Clouds Clear
Windchill -6 °F
Dew Point -8 °F
Humidity 88%
Rainfall 0.00 in
Snow Depth Not available.
7:56 AM 5:18 PM
Waning Gibbous, 74% visible
METAR KRXE 170853Z AUTO 06003KT 10SM CLR M21/M23 A3028 RMK AO2 SLP352 T12061228 58002
Pressure 30.57 in
Visibility 10.0 miles
Clouds Clear
Windchill -6 °F
Dew Point -8 °F
Humidity 88%
Rainfall 0.00 in
Snow Depth Not available.
7:56 AM 5:18 PM
Waning Gibbous, 74% visible
METAR KRXE 170853Z AUTO 06003KT 10SM CLR M21/M23 A3028 RMK AO2 SLP352 T12061228 58002

Get Your Daily Forecast Email!

Thanks for signing up!

Be on the lookout for a verification email in your inbox.

You'll start receiving the daily forecast at 8 AM.

×

10-Day Weather Forecast

Almanac

Astronomy

Jan. 17, 2017 Rise Set
Actual Time
Civil Twilight
Nautical Twilight
Astronomical Twilight
Moon
Length of Visible Light
Length of Day
Tomorrow will be .
, % of the Moon is Illuminated

Today's Extremes

State Highs State Lows

Community

WunderPhotos

Upload Photos

1,962,540 photos uploaded!

WunderBlog® & News

Nearby

Air Quality

  Air Quality AQ Index Pollutant
Not available.

Snow Depth

Station Depth Elevation

Earthquake Activity

City Distance Mag. Time & Date
Minimum magnitude displayed is 2.5.

Coastal Water Temperatures

Place Temperature

Stations

Nearby Weather Stations

Station Location Temp. Windchill Dew Point Humidity Wind Precip. Elev Updated Type
                   

Watches & Warnings

There are currently no watches in effect.